sensor_id;sensor_type;location;lat;lon;timestamp;temperature;humidity
31133;DHT22;17779;50.942;4.026;2023-05-10T00:01:25;14.10;99.90
31133;DHT22;17779;50.942;4.026;2023-05-10T00:03:51;14.00;99.90
31133;DHT22;17779;50.942;4.026;2023-05-10T00:06:17;14.00;99.90
31133;DHT22;17779;50.942;4.026;2023-05-10T00:08:43;13.80;99.90
31133;DHT22;17779;50.942;4.026;2023-05-10T00:11:10;13.70;99.90
31133;DHT22;17779;50.942;4.026;2023-05-10T00:13:36;13.60;99.90
31133;DHT22;17779;50.942;4.026;2023-05-10T00:16:02;13.60;99.90
31133;DHT22;17779;50.942;4.026;2023-05-10T00:18:28;13.50;99.90
31133;DHT22;17779;50.942;4.026;2023-05-10T00:20:54;13.60;99.90
31133;DHT22;17779;50.942;4.026;2023-05-10T00:23:20;13.50;99.90
31133;DHT22;17779;50.942;4.026;2023-05-10T00:25:46;13.50;99.90
31133;DHT22;17779;50.942;4.026;2023-05-10T00:28:13;13.40;99.90
31133;DHT22;17779;50.942;4.026;2023-05-10T00:30:40;13.50;99.90
31133;DHT22;17779;50.942;4.026;2023-05-10T00:33:06;13.70;99.90
31133;DHT22;17779;50.942;4.026;2023-05-10T00:35:32;13.70;99.90
31133;DHT22;17779;50.942;4.026;2023-05-10T00:37:58;13.60;99.90
31133;DHT22;17779;50.942;4.026;2023-05-10T00:40:25;13.60;99.90
31133;DHT22;17779;50.942;4.026;2023-05-10T00:42:51;13.60;99.90
31133;DHT22;17779;50.942;4.026;2023-05-10T00:45:16;13.50;99.90
31133;DHT22;17779;50.942;4.026;2023-05-10T00:47:42;13.40;99.90
31133;DHT22;17779;50.942;4.026;2023-05-10T00:50:08;13.50;99.90
31133;DHT22;17779;50.942;4.026;2023-05-10T00:52:34;13.50;99.90
31133;DHT22;17779;50.942;4.026;2023-05-10T00:55:00;13.40;99.90
31133;DHT22;17779;50.942;4.026;2023-05-10T00:57:26;13.40;99.90
31133;DHT22;17779;50.942;4.026;2023-05-10T00:59:53;13.40;99.90
31133;DHT22;17779;50.942;4.026;2023-05-10T01:02:20;13.50;99.90
31133;DHT22;17779;50.942;4.026;2023-05-10T01:04:46;13.50;99.90
31133;DHT22;17779;50.942;4.026;2023-05-10T01:07:12;13.50;99.90
31133;DHT22;17779;50.942;4.026;2023-05-10T01:09:37;13.60;99.90
31133;DHT22;17779;50.942;4.026;2023-05-10T01:12:03;13.70;99.90
31133;DHT22;17779;50.942;4.026;2023-05-10T01:14:32;13.70;99.90
31133;DHT22;17779;50.942;4.026;2023-05-10T01:17:00;13.80;99.90
31133;DHT22;17779;50.942;4.026;2023-05-10T01:19:28;13.80;99.90
31133;DHT22;17779;50.942;4.026;2023-05-10T01:22:02;13.90;99.90
31133;DHT22;17779;50.942;4.026;2023-05-10T01:35:19;14.10;99.90
31133;DHT22;17779;50.942;4.026;2023-05-10T01:40:48;13.90;99.90
31133;DHT22;17779;50.942;4.026;2023-05-10T01:43:24;13.90;99.90
31133;DHT22;17779;50.942;4.026;2023-05-10T01:48:28;14.00;99.90
31133;DHT22;17779;50.942;4.026;2023-05-10T01:50:54;13.90;99.90
31133;DHT22;17779;50.942;4.026;2023-05-10T01:53:22;13.80;99.90
31133;DHT22;17779;50.942;4.026;2023-05-10T01:55:51;13.80;99.90
31133;DHT22;17779;50.942;4.026;2023-05-10T01:58:31;14.00;99.90
31133;DHT22;17779;50.942;4.026;2023-05-10T02:01:01;13.90;99.90
31133;DHT22;17779;50.942;4.026;2023-05-10T02:03:29;13.80;99.90
31133;DHT22;17779;50.942;4.026;2023-05-10T02:05:59;13.80;99.90
31133;DHT22;17779;50.942;4.026;2023-05-10T02:08:27;13.80;99.90
31133;DHT22;17779;50.942;4.026;2023-05-10T02:10:56;13.80;99.90
31133;DHT22;17779;50.942;4.026;2023-05-10T02:13:25;13.80;99.90
31133;DHT22;17779;50.942;4.026;2023-05-10T02:15:53;13.80;99.90
31133;DHT22;17779;50.942;4.026;2023-05-10T02:18:21;13.90;99.90
31133;DHT22;17779;50.942;4.026;2023-05-10T02:20:48;13.90;99.90
31133;DHT22;17779;50.942;4.026;2023-05-10T02:23:17;14.00;99.90
31133;DHT22;17779;50.942;4.026;2023-05-10T02:25:44;13.80;99.90
31133;DHT22;17779;50.942;4.026;2023-05-10T02:28:11;13.90;99.90
31133;DHT22;17779;50.942;4.026;2023-05-10T02:30:41;13.80;99.90
31133;DHT22;17779;50.942;4.026;2023-05-10T02:33:07;13.90;99.90
31133;DHT22;17779;50.942;4.026;2023-05-10T02:35:34;14.00;99.90
31133;DHT22;17779;50.942;4.026;2023-05-10T02:38:01;13.90;99.90
31133;DHT22;17779;50.942;4.026;2023-05-10T02:40:27;13.70;99.90
31133;DHT22;17779;50.942;4.026;2023-05-10T02:42:55;13.80;99.90
31133;DHT22;17779;50.942;4.026;2023-05-10T02:45:27;13.90;99.90
31133;DHT22;17779;50.942;4.026;2023-05-10T02:47:55;13.80;99.90
31133;DHT22;17779;50.942;4.026;2023-05-10T02:50:21;13.80;99.90
31133;DHT22;17779;50.942;4.026;2023-05-10T02:52:50;13.90;99.90
31133;DHT22;17779;50.942;4.026;2023-05-10T02:55:21;14.00;99.90
31133;DHT22;17779;50.942;4.026;2023-05-10T02:58:00;13.90;99.90
31133;DHT22;17779;50.942;4.026;2023-05-10T03:00:26;13.70;99.90
31133;DHT22;17779;50.942;4.026;2023-05-10T03:02:52;13.50;99.90
31133;DHT22;17779;50.942;4.026;2023-05-10T03:05:18;13.70;99.90
31133;DHT22;17779;50.942;4.026;2023-05-10T03:07:45;13.70;99.90
31133;DHT22;17779;50.942;4.026;2023-05-10T03:10:11;13.70;99.90
31133;DHT22;17779;50.942;4.026;2023-05-10T03:13:12;13.70;99.90
31133;DHT22;17779;50.942;4.026;2023-05-10T03:16:03;13.90;99.90
31133;DHT22;17779;50.942;4.026;2023-05-10T03:18:44;14.10;99.90
31133;DHT22;17779;50.942;4.026;2023-05-10T03:21:17;14.20;99.90
31133;DHT22;17779;50.942;4.026;2023-05-10T03:23:53;14.20;99.90
31133;DHT22;17779;50.942;4.026;2023-05-10T03:26:27;14.10;99.90
31133;DHT22;17779;50.942;4.026;2023-05-10T03:28:55;14.20;99.90
31133;DHT22;17779;50.942;4.026;2023-05-10T03:31:24;14.10;99.90
31133;DHT22;17779;50.942;4.026;2023-05-10T03:33:51;14.20;99.90
31133;DHT22;17779;50.942;4.026;2023-05-10T03:36:17;14.20;99.90
31133;DHT22;17779;50.942;4.026;2023-05-10T03:38:43;14.30;99.90
31133;DHT22;17779;50.942;4.026;2023-05-10T03:41:11;14.20;99.90
31133;DHT22;17779;50.942;4.026;2023-05-10T03:43:37;14.10;99.90
31133;DHT22;17779;50.942;4.026;2023-05-10T03:46:03;14.00;99.90
31133;DHT22;17779;50.942;4.026;2023-05-10T03:48:30;13.90;99.90
31133;DHT22;17779;50.942;4.026;2023-05-10T03:50:55;13.80;99.90
31133;DHT22;17779;50.942;4.026;2023-05-10T03:53:23;13.80;99.90
31133;DHT22;17779;50.942;4.026;2023-05-10T03:55:49;13.90;99.90
31133;DHT22;17779;50.942;4.026;2023-05-10T03:58:15;13.90;99.90
31133;DHT22;17779;50.942;4.026;2023-05-10T04:00:42;13.80;99.90
31133;DHT22;17779;50.942;4.026;2023-05-10T04:03:12;13.90;99.90
31133;DHT22;17779;50.942;4.026;2023-05-10T04:05:41;13.90;99.90
31133;DHT22;17779;50.942;4.026;2023-05-10T04:08:07;13.80;99.90
31133;DHT22;17779;50.942;4.026;2023-05-10T04:10:33;13.90;99.90
31133;DHT22;17779;50.942;4.026;2023-05-10T04:12:59;13.90;99.90
31133;DHT22;17779;50.942;4.026;2023-05-10T04:15:25;13.90;99.90
31133;DHT22;17779;50.942;4.026;2023-05-10T04:17:50;13.80;99.90
31133;DHT22;17779;50.942;4.026;2023-05-10T04:20:16;13.70;99.90
31133;DHT22;17779;50.942;4.026;2023-05-10T04:22:42;13.70;99.90
31133;DHT22;17779;50.942;4.026;2023-05-10T04:25:08;13.60;99.90
31133;DHT22;17779;50.942;4.026;2023-05-10T04:27:34;13.50;99.90
31133;DHT22;17779;50.942;4.026;2023-05-10T04:30:00;13.50;99.90
31133;DHT22;17779;50.942;4.026;2023-05-10T04:32:26;13.50;99.90
31133;DHT22;17779;50.942;4.026;2023-05-10T04:34:52;13.50;99.90
31133;DHT22;17779;50.942;4.026;2023-05-10T04:37:18;13.50;99.90
31133;DHT22;17779;50.942;4.026;2023-05-10T04:39:45;13.40;99.90
31133;DHT22;17779;50.942;4.026;2023-05-10T04:42:11;13.40;99.90
31133;DHT22;17779;50.942;4.026;2023-05-10T04:47:06;13.40;99.90
31133;DHT22;17779;50.942;4.026;2023-05-10T04:49:31;13.50;99.90
31133;DHT22;17779;50.942;4.026;2023-05-10T04:51:57;13.50;99.90
31133;DHT22;17779;50.942;4.026;2023-05-10T04:54:23;13.50;99.90
31133;DHT22;17779;50.942;4.026;2023-05-10T04:56:49;13.60;99.90
31133;DHT22;17779;50.942;4.026;2023-05-10T04:59:15;13.70;99.90
31133;DHT22;17779;50.942;4.026;2023-05-10T05:01:41;13.80;99.90
31133;DHT22;17779;50.942;4.026;2023-05-10T05:04:06;14.00;99.90
31133;DHT22;17779;50.942;4.026;2023-05-10T05:06:32;14.20;99.90
31133;DHT22;17779;50.942;4.026;2023-05-10T05:08:58;14.20;99.90
31133;DHT22;17779;50.942;4.026;2023-05-10T05:11:24;14.20;99.90
31133;DHT22;17779;50.942;4.026;2023-05-10T05:13:51;14.00;99.90
31133;DHT22;17779;50.942;4.026;2023-05-10T05:16:17;13.90;99.90
31133;DHT22;17779;50.942;4.026;2023-05-10T05:18:43;13.90;99.90
31133;DHT22;17779;50.942;4.026;2023-05-10T05:21:19;14.10;99.90
31133;DHT22;17779;50.942;4.026;2023-05-10T05:23:45;14.30;99.90
31133;DHT22;17779;50.942;4.026;2023-05-10T05:26:11;14.40;99.90
31133;DHT22;17779;50.942;4.026;2023-05-10T05:28:37;14.40;99.90
31133;DHT22;17779;50.942;4.026;2023-05-10T05:31:04;14.40;99.90
31133;DHT22;17779;50.942;4.026;2023-05-10T05:33:31;14.30;99.90
31133;DHT22;17779;50.942;4.026;2023-05-10T05:35:59;14.10;99.90
31133;DHT22;17779;50.942;4.026;2023-05-10T05:38:25;14.30;99.90
31133;DHT22;17779;50.942;4.026;2023-05-10T05:40:52;14.40;99.90
31133;DHT22;17779;50.942;4.026;2023-05-10T05:43:19;14.40;99.90
31133;DHT22;17779;50.942;4.026;2023-05-10T05:45:45;14.30;99.90
31133;DHT22;17779;50.942;4.026;2023-05-10T05:48:10;14.30;99.90
31133;DHT22;17779;50.942;4.026;2023-05-10T05:50:36;14.40;99.90
31133;DHT22;17779;50.942;4.026;2023-05-10T05:53:02;14.20;99.90
31133;DHT22;17779;50.942;4.026;2023-05-10T05:55:29;14.00;99.90
31133;DHT22;17779;50.942;4.026;2023-05-10T05:57:57;13.90;99.90
31133;DHT22;17779;50.942;4.026;2023-05-10T06:00:24;13.90;99.90
31133;DHT22;17779;50.942;4.026;2023-05-10T06:02:51;14.00;99.90
31133;DHT22;17779;50.942;4.026;2023-05-10T06:05:17;13.90;99.90
31133;DHT22;17779;50.942;4.026;2023-05-10T06:07:45;14.00;99.90
31133;DHT22;17779;50.942;4.026;2023-05-10T06:10:11;14.10;99.90
31133;DHT22;17779;50.942;4.026;2023-05-10T06:12:37;14.20;99.90
31133;DHT22;17779;50.942;4.026;2023-05-10T06:15:03;14.30;99.90
31133;DHT22;17779;50.942;4.026;2023-05-10T06:17:32;14.10;99.90
31133;DHT22;17779;50.942;4.026;2023-05-10T06:19:57;13.90;99.90
31133;DHT22;17779;50.942;4.026;2023-05-10T06:22:23;13.70;99.90
31133;DHT22;17779;50.942;4.026;2023-05-10T06:24:49;13.70;99.90
31133;DHT22;17779;50.942;4.026;2023-05-10T06:27:15;13.60;99.90
31133;DHT22;17779;50.942;4.026;2023-05-10T06:29:41;13.50;99.90
31133;DHT22;17779;50.942;4.026;2023-05-10T06:32:06;13.60;99.90
31133;DHT22;17779;50.942;4.026;2023-05-10T06:34:32;13.80;99.90
31133;DHT22;17779;50.942;4.026;2023-05-10T06:36:58;13.90;99.90
31133;DHT22;17779;50.942;4.026;2023-05-10T06:39:23;14.00;99.90
31133;DHT22;17779;50.942;4.026;2023-05-10T06:41:49;14.10;99.90
31133;DHT22;17779;50.942;4.026;2023-05-10T06:44:15;13.90;99.90
31133;DHT22;17779;50.942;4.026;2023-05-10T06:46:41;13.80;99.90
31133;DHT22;17779;50.942;4.026;2023-05-10T06:49:07;13.80;99.90
31133;DHT22;17779;50.942;4.026;2023-05-10T06:51:33;13.90;99.90
31133;DHT22;17779;50.942;4.026;2023-05-10T06:53:59;13.70;99.90
31133;DHT22;17779;50.942;4.026;2023-05-10T06:56:25;13.70;99.90
31133;DHT22;17779;50.942;4.026;2023-05-10T06:58:51;13.60;99.90
31133;DHT22;17779;50.942;4.026;2023-05-10T07:01:17;13.70;99.90
31133;DHT22;17779;50.942;4.026;2023-05-10T07:03:42;13.70;99.90
31133;DHT22;17779;50.942;4.026;2023-05-10T07:06:08;13.80;99.90
31133;DHT22;17779;50.942;4.026;2023-05-10T07:08:34;13.80;99.90
31133;DHT22;17779;50.942;4.026;2023-05-10T07:11:04;13.80;99.90
31133;DHT22;17779;50.942;4.026;2023-05-10T07:13:31;13.50;99.90
31133;DHT22;17779;50.942;4.026;2023-05-10T07:15:57;13.60;99.90
31133;DHT22;17779;50.942;4.026;2023-05-10T07:18:24;13.90;99.90
31133;DHT22;17779;50.942;4.026;2023-05-10T07:20:50;14.10;99.90
31133;DHT22;17779;50.942;4.026;2023-05-10T07:23:17;14.40;99.90
31133;DHT22;17779;50.942;4.026;2023-05-10T07:25:47;14.20;99.90
31133;DHT22;17779;50.942;4.026;2023-05-10T07:28:14;14.00;99.90
31133;DHT22;17779;50.942;4.026;2023-05-10T07:30:41;14.20;99.90
31133;DHT22;17779;50.942;4.026;2023-05-10T07:33:07;14.30;99.90
31133;DHT22;17779;50.942;4.026;2023-05-10T07:35:34;14.00;99.90
31133;DHT22;17779;50.942;4.026;2023-05-10T07:38:00;13.90;99.90
31133;DHT22;17779;50.942;4.026;2023-05-10T07:40:26;14.00;99.90
31133;DHT22;17779;50.942;4.026;2023-05-10T07:42:52;14.20;99.90
31133;DHT22;17779;50.942;4.026;2023-05-10T07:45:18;14.40;99.90
31133;DHT22;17779;50.942;4.026;2023-05-10T07:47:43;14.60;99.90
31133;DHT22;17779;50.942;4.026;2023-05-10T07:50:09;14.80;99.90
31133;DHT22;17779;50.942;4.026;2023-05-10T07:52:35;14.90;99.90
31133;DHT22;17779;50.942;4.026;2023-05-10T07:55:01;14.90;99.90
31133;DHT22;17779;50.942;4.026;2023-05-10T07:57:27;14.70;99.90
31133;DHT22;17779;50.942;4.026;2023-05-10T07:59:53;15.00;99.90
31133;DHT22;17779;50.942;4.026;2023-05-10T08:02:18;14.90;99.90
31133;DHT22;17779;50.942;4.026;2023-05-10T08:04:44;14.80;99.90
31133;DHT22;17779;50.942;4.026;2023-05-10T08:07:10;14.90;99.90
31133;DHT22;17779;50.942;4.026;2023-05-10T08:09:36;14.80;99.90
31133;DHT22;17779;50.942;4.026;2023-05-10T08:12:02;14.60;99.90
31133;DHT22;17779;50.942;4.026;2023-05-10T08:14:31;14.70;99.90
31133;DHT22;17779;50.942;4.026;2023-05-10T08:16:57;14.80;99.90
31133;DHT22;17779;50.942;4.026;2023-05-10T08:19:22;14.60;99.90
31133;DHT22;17779;50.942;4.026;2023-05-10T08:21:49;14.60;99.90
31133;DHT22;17779;50.942;4.026;2023-05-10T08:24:15;14.70;99.90
31133;DHT22;17779;50.942;4.026;2023-05-10T08:26:42;14.70;99.90
31133;DHT22;17779;50.942;4.026;2023-05-10T08:29:08;14.80;99.90
31133;DHT22;17779;50.942;4.026;2023-05-10T08:31:34;14.80;99.90
31133;DHT22;17779;50.942;4.026;2023-05-10T08:34:00;14.70;99.90
31133;DHT22;17779;50.942;4.026;2023-05-10T08:36:25;14.40;99.90
31133;DHT22;17779;50.942;4.026;2023-05-10T08:38:52;14.40;99.90
31133;DHT22;17779;50.942;4.026;2023-05-10T08:41:19;14.50;99.90
31133;DHT22;17779;50.942;4.026;2023-05-10T08:43:46;14.50;99.90
31133;DHT22;17779;50.942;4.026;2023-05-10T08:46:17;14.40;99.90
31133;DHT22;17779;50.942;4.026;2023-05-10T08:48:47;14.50;99.90
31133;DHT22;17779;50.942;4.026;2023-05-10T08:51:14;14.50;99.90
31133;DHT22;17779;50.942;4.026;2023-05-10T08:53:42;14.80;99.90
31133;DHT22;17779;50.942;4.026;2023-05-10T08:56:07;15.20;99.90
31133;DHT22;17779;50.942;4.026;2023-05-10T08:58:33;15.20;99.90
31133;DHT22;17779;50.942;4.026;2023-05-10T09:00:59;15.20;99.90
31133;DHT22;17779;50.942;4.026;2023-05-10T09:03:26;14.90;99.90
31133;DHT22;17779;50.942;4.026;2023-05-10T09:05:52;14.50;99.90
31133;DHT22;17779;50.942;4.026;2023-05-10T09:08:18;14.40;99.90
31133;DHT22;17779;50.942;4.026;2023-05-10T09:10:44;14.50;99.90
31133;DHT22;17779;50.942;4.026;2023-05-10T09:13:13;14.40;99.90
31133;DHT22;17779;50.942;4.026;2023-05-10T09:15:39;14.50;99.90
31133;DHT22;17779;50.942;4.026;2023-05-10T09:18:05;14.60;99.90
31133;DHT22;17779;50.942;4.026;2023-05-10T09:20:31;14.60;99.90
31133;DHT22;17779;50.942;4.026;2023-05-10T09:22:57;14.50;99.90
31133;DHT22;17779;50.942;4.026;2023-05-10T09:25:22;14.20;99.90
31133;DHT22;17779;50.942;4.026;2023-05-10T09:27:48;14.10;99.90
31133;DHT22;17779;50.942;4.026;2023-05-10T09:30:24;14.20;99.90
31133;DHT22;17779;50.942;4.026;2023-05-10T09:32:51;14.40;99.90
31133;DHT22;17779;50.942;4.026;2023-05-10T09:35:21;14.50;99.90
31133;DHT22;17779;50.942;4.026;2023-05-10T09:37:50;14.50;99.90
31133;DHT22;17779;50.942;4.026;2023-05-10T09:40:21;14.60;99.90
31133;DHT22;17779;50.942;4.026;2023-05-10T09:42:58;14.70;99.90
31133;DHT22;17779;50.942;4.026;2023-05-10T09:45:28;14.90;99.90
31133;DHT22;17779;50.942;4.026;2023-05-10T09:47:54;15.00;99.90
31133;DHT22;17779;50.942;4.026;2023-05-10T09:50:20;14.90;99.90
31133;DHT22;17779;50.942;4.026;2023-05-10T09:55:13;15.10;99.90
31133;DHT22;17779;50.942;4.026;2023-05-10T09:57:39;15.10;99.90
31133;DHT22;17779;50.942;4.026;2023-05-10T10:00:06;14.90;99.90
31133;DHT22;17779;50.942;4.026;2023-05-10T10:02:32;15.10;99.90
31133;DHT22;17779;50.942;4.026;2023-05-10T10:05:00;15.20;99.90
31133;DHT22;17779;50.942;4.026;2023-05-10T10:07:27;15.20;99.90
31133;DHT22;17779;50.942;4.026;2023-05-10T10:09:53;14.80;99.90
31133;DHT22;17779;50.942;4.026;2023-05-10T10:12:19;14.90;99.90
31133;DHT22;17779;50.942;4.026;2023-05-10T10:14:48;14.80;99.90
31133;DHT22;17779;50.942;4.026;2023-05-10T10:17:16;14.80;99.90
31133;DHT22;17779;50.942;4.026;2023-05-10T10:19:41;14.90;99.90
31133;DHT22;17779;50.942;4.026;2023-05-10T10:22:08;14.90;99.90
31133;DHT22;17779;50.942;4.026;2023-05-10T10:24:36;15.00;99.90
31133;DHT22;17779;50.942;4.026;2023-05-10T10:35:53;15.70;99.90
31133;DHT22;17779;50.942;4.026;2023-05-10T10:38:20;15.50;99.90
31133;DHT22;17779;50.942;4.026;2023-05-10T10:40:47;15.40;99.90
31133;DHT22;17779;50.942;4.026;2023-05-10T10:43:24;15.20;99.90
31133;DHT22;17779;50.942;4.026;2023-05-10T10:46:09;15.20;99.90
31133;DHT22;17779;50.942;4.026;2023-05-10T10:48:35;15.10;99.90
31133;DHT22;17779;50.942;4.026;2023-05-10T10:51:02;15.50;99.90
31133;DHT22;17779;50.942;4.026;2023-05-10T10:53:28;15.40;99.90
31133;DHT22;17779;50.942;4.026;2023-05-10T10:56:11;15.50;99.90
31133;DHT22;17779;50.942;4.026;2023-05-10T10:58:39;15.80;99.90
31133;DHT22;17779;50.942;4.026;2023-05-10T11:03:38;15.90;99.90
31133;DHT22;17779;50.942;4.026;2023-05-10T11:06:04;15.90;99.90
31133;DHT22;17779;50.942;4.026;2023-05-10T11:08:31;16.00;99.90
31133;DHT22;17779;50.942;4.026;2023-05-10T11:13:45;16.00;99.90
31133;DHT22;17779;50.942;4.026;2023-05-10T11:16:21;16.30;99.90
31133;DHT22;17779;50.942;4.026;2023-05-10T11:19:10;16.30;99.90
31133;DHT22;17779;50.942;4.026;2023-05-10T11:24:28;16.70;99.90
31133;DHT22;17779;50.942;4.026;2023-05-10T11:26:54;16.50;99.90
31133;DHT22;17779;50.942;4.026;2023-05-10T11:29:20;16.40;99.90
31133;DHT22;17779;50.942;4.026;2023-05-10T11:31:47;16.50;99.90
31133;DHT22;17779;50.942;4.026;2023-05-10T11:34:28;16.60;99.90
31133;DHT22;17779;50.942;4.026;2023-05-10T11:36:56;16.80;99.90
31133;DHT22;17779;50.942;4.026;2023-05-10T11:39:29;16.80;99.90
31133;DHT22;17779;50.942;4.026;2023-05-10T11:41:56;17.00;99.90
31133;DHT22;17779;50.942;4.026;2023-05-10T11:44:22;16.90;99.90
31133;DHT22;17779;50.942;4.026;2023-05-10T11:46:49;16.70;99.90
31133;DHT22;17779;50.942;4.026;2023-05-10T11:49:15;16.80;99.90
31133;DHT22;17779;50.942;4.026;2023-05-10T11:51:41;16.90;99.90
31133;DHT22;17779;50.942;4.026;2023-05-10T11:54:10;17.30;99.90
31133;DHT22;17779;50.942;4.026;2023-05-10T11:56:40;17.30;99.90
31133;DHT22;17779;50.942;4.026;2023-05-10T11:59:06;17.30;99.90
31133;DHT22;17779;50.942;4.026;2023-05-10T12:01:32;17.20;99.90
31133;DHT22;17779;50.942;4.026;2023-05-10T12:03:58;17.20;99.90
31133;DHT22;17779;50.942;4.026;2023-05-10T12:06:32;17.10;99.90
31133;DHT22;17779;50.942;4.026;2023-05-10T12:09:06;17.10;99.90
31133;DHT22;17779;50.942;4.026;2023-05-10T12:11:37;17.00;99.90
31133;DHT22;17779;50.942;4.026;2023-05-10T12:14:04;16.80;99.90
31133;DHT22;17779;50.942;4.026;2023-05-10T12:16:31;16.90;99.90
31133;DHT22;17779;50.942;4.026;2023-05-10T12:19:00;16.90;99.90
31133;DHT22;17779;50.942;4.026;2023-05-10T12:21:27;17.00;99.90
31133;DHT22;17779;50.942;4.026;2023-05-10T12:23:58;17.00;99.90
31133;DHT22;17779;50.942;4.026;2023-05-10T12:26:24;16.90;99.90
31133;DHT22;17779;50.942;4.026;2023-05-10T12:28:53;17.00;99.90
31133;DHT22;17779;50.942;4.026;2023-05-10T12:31:19;17.00;99.90
31133;DHT22;17779;50.942;4.026;2023-05-10T12:33:45;16.60;99.90
31133;DHT22;17779;50.942;4.026;2023-05-10T12:36:15;16.40;99.90
31133;DHT22;17779;50.942;4.026;2023-05-10T12:38:44;16.70;99.90
31133;DHT22;17779;50.942;4.026;2023-05-10T12:41:17;16.70;99.90
31133;DHT22;17779;50.942;4.026;2023-05-10T12:43:43;16.80;99.90
31133;DHT22;17779;50.942;4.026;2023-05-10T12:46:11;16.80;99.90
31133;DHT22;17779;50.942;4.026;2023-05-10T12:48:38;17.00;99.90
31133;DHT22;17779;50.942;4.026;2023-05-10T12:51:05;17.10;99.90
31133;DHT22;17779;50.942;4.026;2023-05-10T12:53:37;17.10;99.90
31133;DHT22;17779;50.942;4.026;2023-05-10T12:56:03;17.30;99.90
31133;DHT22;17779;50.942;4.026;2023-05-10T12:58:29;17.20;99.90
31133;DHT22;17779;50.942;4.026;2023-05-10T13:00:55;17.00;99.90
31133;DHT22;17779;50.942;4.026;2023-05-10T13:03:22;16.90;99.90
31133;DHT22;17779;50.942;4.026;2023-05-10T13:05:48;17.10;99.90
31133;DHT22;17779;50.942;4.026;2023-05-10T13:08:13;16.90;99.90
31133;DHT22;17779;50.942;4.026;2023-05-10T13:10:39;16.90;99.90
31133;DHT22;17779;50.942;4.026;2023-05-10T13:13:05;17.10;99.90
31133;DHT22;17779;50.942;4.026;2023-05-10T13:15:31;16.80;99.90
31133;DHT22;17779;50.942;4.026;2023-05-10T13:17:57;17.10;99.90
31133;DHT22;17779;50.942;4.026;2023-05-10T13:20:23;17.10;99.90
31133;DHT22;17779;50.942;4.026;2023-05-10T13:22:49;16.90;99.90
31133;DHT22;17779;50.942;4.026;2023-05-10T13:25:15;16.80;99.90
31133;DHT22;17779;50.942;4.026;2023-05-10T13:27:40;16.90;99.90
31133;DHT22;17779;50.942;4.026;2023-05-10T13:30:08;17.60;99.90
31133;DHT22;17779;50.942;4.026;2023-05-10T13:32:34;17.50;99.90
31133;DHT22;17779;50.942;4.026;2023-05-10T13:35:00;17.30;99.90
31133;DHT22;17779;50.942;4.026;2023-05-10T13:37:26;17.30;99.90
31133;DHT22;17779;50.942;4.026;2023-05-10T13:39:52;17.20;99.90
31133;DHT22;17779;50.942;4.026;2023-05-10T13:42:18;17.40;99.90
31133;DHT22;17779;50.942;4.026;2023-05-10T13:44:43;17.30;99.90
31133;DHT22;17779;50.942;4.026;2023-05-10T13:47:09;17.20;99.90
31133;DHT22;17779;50.942;4.026;2023-05-10T13:49:35;17.20;99.90
31133;DHT22;17779;50.942;4.026;2023-05-10T13:52:01;16.90;99.90
31133;DHT22;17779;50.942;4.026;2023-05-10T13:54:34;16.90;99.90
31133;DHT22;17779;50.942;4.026;2023-05-10T13:57:01;16.70;99.90
31133;DHT22;17779;50.942;4.026;2023-05-10T13:59:27;16.40;99.90
31133;DHT22;17779;50.942;4.026;2023-05-10T14:01:52;16.10;99.90
31133;DHT22;17779;50.942;4.026;2023-05-10T14:04:18;16.40;99.90
31133;DHT22;17779;50.942;4.026;2023-05-10T14:06:44;16.30;99.90
31133;DHT22;17779;50.942;4.026;2023-05-10T14:09:09;15.90;99.90
31133;DHT22;17779;50.942;4.026;2023-05-10T14:11:35;16.10;99.90
31133;DHT22;17779;50.942;4.026;2023-05-10T14:14:01;16.10;99.90
31133;DHT22;17779;50.942;4.026;2023-05-10T14:16:27;16.00;99.90
31133;DHT22;17779;50.942;4.026;2023-05-10T14:18:53;15.80;99.90
31133;DHT22;17779;50.942;4.026;2023-05-10T14:21:19;15.40;99.90
31133;DHT22;17779;50.942;4.026;2023-05-10T14:23:45;15.00;99.90
31133;DHT22;17779;50.942;4.026;2023-05-10T14:26:11;14.90;99.90
31133;DHT22;17779;50.942;4.026;2023-05-10T14:28:37;14.90;99.90
31133;DHT22;17779;50.942;4.026;2023-05-10T14:31:03;14.50;99.90
31133;DHT22;17779;50.942;4.026;2023-05-10T14:33:29;14.30;99.90
31133;DHT22;17779;50.942;4.026;2023-05-10T14:35:54;14.10;99.90
31133;DHT22;17779;50.942;4.026;2023-05-10T14:38:22;14.20;99.90
31133;DHT22;17779;50.942;4.026;2023-05-10T14:40:48;14.30;99.90
31133;DHT22;17779;50.942;4.026;2023-05-10T14:43:14;14.10;99.90
31133;DHT22;17779;50.942;4.026;2023-05-10T14:45:40;14.00;99.90
31133;DHT22;17779;50.942;4.026;2023-05-10T14:48:05;14.00;99.90
31133;DHT22;17779;50.942;4.026;2023-05-10T14:50:31;14.10;99.90
31133;DHT22;17779;50.942;4.026;2023-05-10T14:52:58;14.10;99.90
31133;DHT22;17779;50.942;4.026;2023-05-10T14:55:24;13.90;99.90
31133;DHT22;17779;50.942;4.026;2023-05-10T14:57:50;14.00;99.90
31133;DHT22;17779;50.942;4.026;2023-05-10T15:00:16;14.00;99.90
31133;DHT22;17779;50.942;4.026;2023-05-10T15:02:44;13.90;99.90
31133;DHT22;17779;50.942;4.026;2023-05-10T15:05:10;14.00;99.90
31133;DHT22;17779;50.942;4.026;2023-05-10T15:07:36;14.10;99.90
31133;DHT22;17779;50.942;4.026;2023-05-10T15:10:02;14.00;99.90
31133;DHT22;17779;50.942;4.026;2023-05-10T15:12:28;14.00;99.90
31133;DHT22;17779;50.942;4.026;2023-05-10T15:14:54;13.90;99.90
31133;DHT22;17779;50.942;4.026;2023-05-10T15:17:19;14.00;99.90
31133;DHT22;17779;50.942;4.026;2023-05-10T15:19:45;13.90;99.90
31133;DHT22;17779;50.942;4.026;2023-05-10T15:22:11;13.90;99.90
31133;DHT22;17779;50.942;4.026;2023-05-10T15:24:37;14.10;99.90
31133;DHT22;17779;50.942;4.026;2023-05-10T15:27:02;14.30;99.90
31133;DHT22;17779;50.942;4.026;2023-05-10T15:29:29;14.30;99.90
31133;DHT22;17779;50.942;4.026;2023-05-10T15:31:55;14.10;99.90
31133;DHT22;17779;50.942;4.026;2023-05-10T15:34:21;14.10;99.90
31133;DHT22;17779;50.942;4.026;2023-05-10T15:36:46;14.10;99.90
31133;DHT22;17779;50.942;4.026;2023-05-10T15:39:12;14.00;99.90
31133;DHT22;17779;50.942;4.026;2023-05-10T15:41:38;14.10;99.90
31133;DHT22;17779;50.942;4.026;2023-05-10T15:44:04;14.20;99.90
31133;DHT22;17779;50.942;4.026;2023-05-10T15:46:30;14.20;99.90
31133;DHT22;17779;50.942;4.026;2023-05-10T15:48:59;14.20;99.90
31133;DHT22;17779;50.942;4.026;2023-05-10T15:51:25;14.50;99.90
31133;DHT22;17779;50.942;4.026;2023-05-10T15:53:51;14.80;99.90
31133;DHT22;17779;50.942;4.026;2023-05-10T15:56:17;15.00;99.90
31133;DHT22;17779;50.942;4.026;2023-05-10T15:58:42;15.20;99.90
31133;DHT22;17779;50.942;4.026;2023-05-10T16:01:09;15.40;99.90
31133;DHT22;17779;50.942;4.026;2023-05-10T16:03:36;15.20;99.90
31133;DHT22;17779;50.942;4.026;2023-05-10T16:06:02;14.90;99.90
31133;DHT22;17779;50.942;4.026;2023-05-10T16:08:28;14.70;99.90